Time;durP1;ratioP1;P1;durP2;ratioP2;P2;SDS_P1;SDS_P2;PMS_P1;PMS_P2;Temp;Humidity;BMP_temperature;BMP_pressure;BME280_temperature;BME280_humidity;BME280_pressure;Samples;Min_cycle;Max_cycle;Signal;HPM_P1;HPM_P2
2023/07/02 00:01:50;;;;;;;8.35;2.25;;;16.40;99.90;;;;;;5036497;28;20201;-66
2023/07/02 00:04:19;;;;;;;2.63;2.17;;;16.40;99.90;;;;;;5063586;28;21108;-66
2023/07/02 00:06:46;;;;;;;4.10;2.10;;;16.40;99.90;;;;;;5067283;28;20207;-66
2023/07/02 00:09:15;;;;;;;2.95;2.13;;;16.30;99.90;;;;;;5026491;28;20208;-66
2023/07/02 00:11:43;;;;;;;4.30;2.13;;;16.40;99.90;;;;;;5060572;28;20197;-66
2023/07/02 00:14:11;;;;;;;7.25;2.65;;;16.20;99.90;;;;;;5061428;28;20228;-66
2023/07/02 00:16:40;;;;;;;4.07;2.33;;;16.30;99.90;;;;;;5051871;28;20212;-66
2023/07/02 00:19:07;;;;;;;3.30;2.25;;;16.30;99.90;;;;;;5049083;28;20235;-66
2023/07/02 00:21:33;;;;;;;2.63;2.42;;;16.30;99.90;;;;;;5060243;28;20228;-66
2023/07/02 00:24:01;;;;;;;4.80;2.60;;;16.40;99.90;;;;;;5054159;28;20204;-66
2023/07/02 00:26:29;;;;;;;6.22;2.35;;;16.40;99.90;;;;;;5033211;28;20223;-66
2023/07/02 00:28:57;;;;;;;6.03;2.25;;;16.20;99.90;;;;;;5063895;28;20197;-66
2023/07/02 00:31:24;;;;;;;3.90;2.30;;;16.20;99.90;;;;;;5043028;28;20223;-66
2023/07/02 00:33:51;;;;;;;4.97;2.20;;;16.40;99.90;;;;;;5042739;28;20890;-66
2023/07/02 00:36:18;;;;;;;3.50;2.13;;;14.80;99.90;;;;;;5057071;28;20204;-66
2023/07/02 00:38:47;;;;;;;3.95;2.30;;;16.40;99.90;;;;;;5060639;28;20196;-66
2023/07/02 00:41:14;;;;;;;4.30;2.50;;;16.40;99.90;;;;;;5021989;28;20295;-66
2023/07/02 00:43:44;;;;;;;9.68;2.50;;;16.40;99.90;;;;;;5055879;28;20204;-66
2023/07/02 00:46:13;;;;;;;4.18;2.45;;;16.40;99.90;;;;;;5054547;28;20196;-66
2023/07/02 00:48:41;;;;;;;5.35;2.58;;;16.40;99.90;;;;;;5038245;28;20207;-66
2023/07/02 00:51:09;;;;;;;4.78;2.72;;;16.40;99.90;;;;;;5054908;28;21126;-66
2023/07/02 00:53:36;;;;;;;6.90;2.38;;;16.40;99.90;;;;;;5053139;28;20723;-66
2023/07/02 00:56:03;;;;;;;7.20;2.53;;;16.40;99.90;;;;;;5048981;28;20201;-66
2023/07/02 00:58:30;;;;;;;3.00;2.38;;;16.40;99.90;;;;;;5035815;28;20199;-66
2023/07/02 01:00:58;;;;;;;4.70;2.30;;;16.40;99.90;;;;;;5054202;28;20204;-66
2023/07/02 01:03:25;;;;;;;4.85;2.65;;;16.60;99.90;;;;;;5055938;28;20563;-66
2023/07/02 01:05:52;;;;;;;3.17;2.45;;;16.40;99.90;;;;;;5043887;28;20204;-66
2023/07/02 01:08:18;;;;;;;5.53;2.40;;;16.40;99.90;;;;;;5056746;28;20725;-66
2023/07/02 01:10:45;;;;;;;5.50;2.47;;;16.50;99.90;;;;;;5057174;28;20211;-66
2023/07/02 01:13:17;;;;;;;4.80;2.28;;;16.30;99.90;;;;;;5029232;28;20205;-66
2023/07/02 01:15:45;;;;;;;4.20;2.38;;;16.30;99.90;;;;;;5052865;28;20231;-66
2023/07/02 01:18:15;;;;;;;5.20;2.60;;;16.40;99.90;;;;;;5056140;28;20221;-65
2023/07/02 01:20:43;;;;;;;4.10;2.42;;;16.30;99.90;;;;;;5033255;28;20254;-66
2023/07/02 01:23:11;;;;;;;5.97;2.95;;;16.00;99.90;;;;;;5057402;28;21150;-65
2023/07/02 01:25:38;;;;;;;3.97;3.03;;;16.80;99.90;;;;;;5040634;28;20200;-66
2023/07/02 01:28:05;;;;;;;4.55;3.00;;;16.30;99.90;;;;;;5030621;28;20205;-66
2023/07/02 01:30:32;;;;;;;6.00;2.80;;;16.20;99.90;;;;;;5049503;28;20196;-66
2023/07/02 01:32:58;;;;;;;7.63;3.00;;;16.10;99.90;;;;;;5054632;28;20842;-66
2023/07/02 01:35:25;;;;;;;6.20;2.47;;;16.10;99.90;;;;;;5042789;28;20263;-66
2023/07/02 01:37:54;;;;;;;4.20;3.00;;;16.10;99.90;;;;;;5045827;28;20828;-66
2023/07/02 01:40:21;;;;;;;5.78;2.80;;;16.10;99.90;;;;;;5057872;28;20196;-66
2023/07/02 01:42:48;;;;;;;5.32;2.80;;;16.10;99.90;;;;;;5028112;28;20220;-66
2023/07/02 01:45:15;;;;;;;7.07;2.92;;;16.10;99.90;;;;;;5041713;28;20685;-66
2023/07/02 01:47:42;;;;;;;8.25;3.38;;;16.20;99.90;;;;;;5044267;28;20201;-66
2023/07/02 01:50:09;;;;;;;4.57;2.95;;;16.10;99.90;;;;;;5042000;28;20200;-66
2023/07/02 01:52:36;;;;;;;7.68;3.20;;;16.20;99.90;;;;;;5053715;28;20211;-66
2023/07/02 01:55:05;;;;;;;9.80;3.13;;;16.20;99.90;;;;;;5052276;28;20715;-66
2023/07/02 01:57:32;;;;;;;5.80;2.85;;;16.00;99.90;;;;;;5062007;28;20200;-66
2023/07/02 01:59:58;;;;;;;8.05;3.30;;;16.20;99.90;;;;;;5032086;28;20934;-66
2023/07/02 02:02:25;;;;;;;7.82;2.60;;;15.90;99.90;;;;;;5049758;28;21573;-66
2023/07/02 02:04:52;;;;;;;10.32;3.33;;;15.90;99.90;;;;;;5045588;28;20743;-65
2023/07/02 02:07:19;;;;;;;4.88;2.97;;;15.90;99.90;;;;;;5060555;28;20192;-66
2023/07/02 02:09:45;;;;;;;4.50;2.70;;;15.90;99.90;;;;;;5059038;28;21705;-66
2023/07/02 02:12:14;;;;;;;7.35;3.25;;;15.90;99.90;;;;;;5056498;28;20223;-65
2023/07/02 02:14:42;;;;;;;6.85;3.20;;;15.80;99.90;;;;;;5033887;28;21165;-66
2023/07/02 02:17:08;;;;;;;9.80;3.47;;;15.80;99.90;;;;;;5060891;28;20254;-65
2023/07/02 02:19:35;;;;;;;5.75;3.42;;;15.80;99.90;;;;;;5050299;28;20692;-66
2023/07/02 02:22:02;;;;;;;9.95;3.33;;;15.80;99.90;;;;;;5050235;28;20235;-66
2023/07/02 02:24:29;;;;;;;8.10;3.83;;;15.70;99.90;;;;;;5058785;28;20246;-66
2023/07/02 02:26:56;;;;;;;4.10;3.10;;;15.70;99.90;;;;;;5061040;28;20200;-65
2023/07/02 02:29:24;;;;;;;10.55;3.65;;;15.70;99.90;;;;;;5062545;28;20208;-65
2023/07/02 02:31:51;;;;;;;8.50;3.38;;;15.70;99.90;;;;;;5025715;28;20807;-66
2023/07/02 02:34:18;;;;;;;8.15;3.63;;;15.70;99.90;;;;;;5051459;28;21411;-66
2023/07/02 02:36:44;;;;;;;6.60;3.45;;;15.60;99.90;;;;;;5043876;28;20582;-66
2023/07/02 02:39:11;;;;;;;9.00;3.90;;;;;;;;;;5044755;28;20207;-65
2023/07/02 02:41:39;;;;;;;7.22;3.72;;;;;;;;;;5054336;28;20774;-65
2023/07/02 02:44:05;;;;;;;13.85;3.63;;;15.80;99.90;;;;;;5047730;28;20200;-66
2023/07/02 02:46:34;;;;;;;18.35;4.03;;;15.50;99.90;;;;;;5037016;28;20200;-66
2023/07/02 02:49:00;;;;;;;7.97;3.83;;;15.50;99.90;;;;;;5032925;28;20212;-66
2023/07/02 02:51:27;;;;;;;8.10;3.90;;;15.50;99.90;;;;;;5048897;28;20207;-65
2023/07/02 02:53:54;;;;;;;9.13;3.78;;;15.40;99.90;;;;;;5044864;28;20224;-65
2023/07/02 02:56:21;;;;;;;11.38;3.78;;;15.40;99.90;;;;;;5058202;28;20238;-65
2023/07/02 02:58:47;;;;;;;10.02;4.30;;;15.40;99.90;;;;;;5055354;28;20197;-65
2023/07/02 03:01:14;;;;;;;8.55;4.10;;;15.40;99.90;;;;;;5052068;28;20211;-65
2023/07/02 03:03:45;;;;;;;8.70;4.28;;;15.30;99.90;;;;;;5027570;28;20896;-65
2023/07/02 03:06:13;;;;;;;9.25;4.28;;;15.30;99.90;;;;;;5044036;28;20211;-66
2023/07/02 03:08:40;;;;;;;14.05;4.47;;;15.30;99.90;;;;;;5033117;28;20192;-66
2023/07/02 03:11:07;;;;;;;9.05;4.40;;;15.30;99.90;;;;;;5053677;28;20204;-65
2023/07/02 03:13:34;;;;;;;9.60;3.80;;;;;;;;;;5062633;28;20193;-65
2023/07/02 03:16:01;;;;;;;12.48;4.53;;;15.30;99.90;;;;;;5060304;28;20244;-65
2023/07/02 03:18:28;;;;;;;8.50;4.35;;;15.10;99.90;;;;;;5051441;28;20215;-66
2023/07/02 03:20:56;;;;;;;8.70;4.07;;;15.30;99.90;;;;;;5054282;28;20203;-65
2023/07/02 03:23:23;;;;;;;8.43;3.90;;;15.20;99.90;;;;;;5058472;28;20276;-65
2023/07/02 03:25:50;;;;;;;10.55;3.72;;;15.10;99.90;;;;;;5053197;28;20988;-65
2023/07/02 03:28:16;;;;;;;13.13;4.22;;;15.10;99.90;;;;;;5053140;28;20207;-65
2023/07/02 03:30:43;;;;;;;13.48;4.60;;;15.10;99.90;;;;;;5055667;28;20203;-65
2023/07/02 03:33:10;;;;;;;11.73;4.80;;;15.10;99.90;;;;;;5045762;28;20679;-65
2023/07/02 03:35:37;;;;;;;15.63;4.75;;;15.10;99.90;;;;;;5029419;28;20239;-65
2023/07/02 03:38:06;;;;;;;16.50;4.47;;;15.00;99.90;;;;;;5057258;28;20204;-66
2023/07/02 03:40:33;;;;;;;10.27;4.65;;;15.00;99.90;;;;;;5045938;28;20201;-65
2023/07/02 03:42:59;;;;;;;11.18;4.57;;;15.00;99.90;;;;;;5060109;28;20199;-65
2023/07/02 03:45:26;;;;;;;10.85;4.07;;;15.00;99.90;;;;;;5054149;28;20200;-65
2023/07/02 03:47:53;;;;;;;6.70;3.97;;;15.00;99.90;;;;;;5048218;28;20204;-66
2023/07/02 03:50:20;;;;;;;10.98;4.60;;;15.00;99.90;;;;;;5023860;28;21248;-65
2023/07/02 03:52:47;;;;;;;13.55;4.43;;;15.00;99.90;;;;;;5057872;28;20662;-66
2023/07/02 03:55:15;;;;;;;13.02;4.35;;;15.00;99.90;;;;;;5047060;28;20441;-65
2023/07/02 03:57:42;;;;;;;11.88;4.53;;;14.90;99.90;;;;;;5064161;28;20600;-65
2023/07/02 04:00:11;;;;;;;16.23;5.00;;;14.90;99.90;;;;;;5052328;28;20597;-65
2023/07/02 04:02:38;;;;;;;12.05;5.40;;;14.90;99.90;;;;;;5054826;28;20287;-65
2023/07/02 04:05:05;;;;;;;17.33;5.03;;;14.60;99.90;;;;;;5046804;28;20231;-65
2023/07/02 04:07:32;;;;;;;16.95;4.15;;;15.00;99.90;;;;;;5031783;28;20257;-65
2023/07/02 04:09:59;;;;;;;15.20;4.78;;;14.90;99.90;;;;;;5049282;28;20212;-65
2023/07/02 04:12:27;;;;;;;18.30;4.85;;;15.00;99.90;;;;;;5061331;28;20673;-65
2023/07/02 04:14:54;;;;;;;10.80;5.13;;;14.90;99.90;;;;;;5060758;28;20236;-65
2023/07/02 04:17:21;;;;;;;11.50;4.50;;;15.00;99.90;;;;;;5059183;28;20200;-65
2023/07/02 04:19:48;;;;;;;14.68;4.93;;;15.00;99.90;;;;;;5056839;28;20220;-65
2023/07/02 04:22:14;;;;;;;18.70;4.78;;;15.00;99.90;;;;;;5027221;28;21999;-65
2023/07/02 04:24:41;;;;;;;11.18;5.00;;;15.00;99.90;;;;;;5055206;28;20196;-65
2023/07/02 04:27:08;;;;;;;11.70;4.70;;;15.00;99.90;;;;;;5045659;28;20661;-65
2023/07/02 04:29:36;;;;;;;12.80;4.80;;;15.00;99.90;;;;;;5056198;28;20568;-65
2023/07/02 04:32:03;;;;;;;15.13;5.43;;;15.10;99.90;;;;;;5056989;28;20200;-65
2023/07/02 04:34:30;;;;;;;11.43;4.68;;;15.10;99.90;;;;;;5058147;28;20204;-65
2023/07/02 04:36:57;;;;;;;13.80;5.53;;;15.10;99.90;;;;;;5048032;28;20235;-65
2023/07/02 04:39:23;;;;;;;18.65;5.05;;;15.10;99.90;;;;;;5029236;28;20215;-65
2023/07/02 04:41:52;;;;;;;16.00;5.00;;;15.10;99.90;;;;;;5041934;28;22524;-65
2023/07/02 04:44:20;;;;;;;13.75;5.28;;;15.10;99.90;;;;;;5055837;28;20192;-65
2023/07/02 04:46:49;;;;;;;16.55;5.55;;;15.10;99.90;;;;;;5047714;28;20215;-65
2023/07/02 04:49:16;;;;;;;17.95;4.57;;;15.20;99.90;;;;;;5056821;28;20550;-65
2023/07/02 04:51:43;;;;;;;12.07;5.10;;;;;;;;;;5048187;28;20240;-65
2023/07/02 04:54:10;;;;;;;12.55;5.43;;;15.20;99.90;;;;;;5030490;28;29204;-65
2023/07/02 04:56:36;;;;;;;16.40;5.15;;;15.20;99.90;;;;;;5047520;28;20228;-65
2023/07/02 04:59:03;;;;;;;19.23;5.55;;;15.10;99.90;;;;;;5059042;28;20205;-66
2023/07/02 05:01:30;;;;;;;16.48;4.95;;;15.20;99.90;;;;;;5052409;28;20204;-65
2023/07/02 05:03:58;;;;;;;14.30;4.93;;;15.20;99.90;;;;;;5059121;28;20211;-65
2023/07/02 05:06:25;;;;;;;14.18;4.68;;;15.20;99.90;;;;;;5057900;28;20196;-65
2023/07/02 05:08:52;;;;;;;16.20;5.90;;;15.30;99.90;;;;;;5034578;28;20920;-66
2023/07/02 05:11:19;;;;;;;11.05;5.07;;;15.20;99.90;;;;;;5041993;28;21229;-65
2023/07/02 05:13:46;;;;;;;10.13;4.75;;;;;;;;;;5060715;28;20204;-65
2023/07/02 05:16:13;;;;;;;16.27;6.35;;;15.30;99.90;;;;;;5047924;28;20228;-65
2023/07/02 05:18:40;;;;;;;19.48;5.75;;;15.30;99.90;;;;;;5060627;28;20221;-65
2023/07/02 05:21:08;;;;;;;12.68;5.05;;;15.40;99.90;;;;;;5057927;28;20262;-65
2023/07/02 05:23:35;;;;;;;15.48;5.13;;;15.40;99.90;;;;;;5052821;28;20226;-65
2023/07/02 05:26:02;;;;;;;13.73;5.70;;;15.50;99.90;;;;;;5023543;28;20191;-65
2023/07/02 05:28:29;;;;;;;21.45;6.13;;;15.40;99.90;;;;;;5051933;28;22545;-65
2023/07/02 05:30:56;;;;;;;13.55;4.70;;;15.60;99.90;;;;;;5054668;28;20268;-66
2023/07/02 05:33:23;;;;;;;13.05;5.57;;;15.50;99.90;;;;;;5059859;28;20209;-65
2023/07/02 05:35:50;;;;;;;15.07;5.78;;;14.60;99.90;;;;;;5057530;28;20217;-65
2023/07/02 05:38:19;;;;;;;18.05;6.07;;;15.80;99.90;;;;;;5048892;28;20208;-65
2023/07/02 05:40:46;;;;;;;11.45;5.05;;;15.60;99.90;;;;;;5028969;28;20211;-65
2023/07/02 05:43:13;;;;;;;16.73;6.20;;;15.70;99.90;;;;;;5044963;28;20773;-65
2023/07/02 05:45:39;;;;;;;20.58;6.07;;;15.70;99.90;;;;;;5043746;28;20713;-65
2023/07/02 05:48:06;;;;;;;12.02;5.82;;;15.80;99.90;;;;;;5048042;28;20226;-65
2023/07/02 05:50:33;;;;;;;17.35;5.90;;;15.80;99.90;;;;;;5055725;28;20196;-65
2023/07/02 05:53:00;;;;;;;17.73;5.63;;;15.80;99.90;;;;;;5046880;28;20200;-65
2023/07/02 05:55:28;;;;;;;11.48;5.00;;;15.90;99.90;;;;;;5023071;28;20231;-65
2023/07/02 05:57:57;;;;;;;19.58;6.22;;;15.90;99.90;;;;;;5049309;28;20262;-65
2023/07/02 06:00:24;;;;;;;15.85;5.45;;;15.90;99.90;;;;;;5049166;28;20296;-65
2023/07/02 06:02:51;;;;;;;17.35;6.18;;;16.00;99.90;;;;;;5057922;28;20196;-65
2023/07/02 06:05:17;;;;;;;14.27;5.35;;;16.00;99.90;;;;;;5043994;28;20226;-65
2023/07/02 06:07:44;;;;;;;14.48;6.30;;;16.00;99.90;;;;;;5048614;28;20204;-65
2023/07/02 06:10:11;;;;;;;18.67;5.88;;;16.00;99.90;;;;;;5017388;28;20208;-65
2023/07/02 06:12:39;;;;;;;17.45;6.00;;;16.10;99.90;;;;;;5057783;28;20287;-65
2023/07/02 06:15:07;;;;;;;14.18;5.18;;;16.20;99.90;;;;;;5045282;28;20226;-65
2023/07/02 06:17:34;;;;;;;12.70;4.55;;;16.20;99.90;;;;;;5050852;28;20208;-65
2023/07/02 06:20:00;;;;;;;20.85;5.88;;;16.20;99.90;;;;;;5046757;28;20208;-66
2023/07/02 06:22:27;;;;;;;23.10;5.90;;;15.20;99.90;;;;;;5028858;28;21100;-65
2023/07/02 06:24:54;;;;;;;13.13;5.10;;;16.40;99.90;;;;;;5034180;28;20200;-66
2023/07/02 06:27:21;;;;;;;18.52;5.47;;;16.30;99.90;;;;;;5005578;28;20223;-65
2023/07/02 06:29:49;;;;;;;14.18;5.72;;;16.40;99.90;;;;;;5027577;28;20692;-65
2023/07/02 06:32:16;;;;;;;16.38;5.53;;;16.40;99.90;;;;;;5053805;28;20462;-65
2023/07/02 06:34:43;;;;;;;14.82;5.43;;;16.40;99.90;;;;;;5028850;28;20401;-64
2023/07/02 06:37:10;;;;;;;18.38;6.68;;;16.40;99.90;;;;;;5066887;28;20251;-64
2023/07/02 06:39:37;;;;;;;13.40;5.28;;;16.40;99.90;;;;;;5055313;28;21108;-64
2023/07/02 06:42:04;;;;;;;21.20;5.20;;;16.40;99.90;;;;;;5019891;28;20289;-65
2023/07/02 06:44:31;;;;;;;15.93;5.43;;;16.50;99.90;;;;;;5017871;28;21109;-65
2023/07/02 06:47:00;;;;;;;18.23;5.93;;;16.50;99.90;;;;;;5056421;28;20269;-65
2023/07/02 06:49:26;;;;;;;14.10;5.60;;;16.50;99.90;;;;;;5030576;28;20231;-65
2023/07/02 06:51:54;;;;;;;10.85;5.05;;;16.60;99.90;;;;;;5047502;28;20301;-65
2023/07/02 06:54:21;;;;;;;17.45;5.50;;;16.60;99.90;;;;;;5041884;28;20234;-65
2023/07/02 06:56:48;;;;;;;9.65;4.22;;;16.60;99.90;;;;;;5039996;28;20358;-66
2023/07/02 06:59:20;;;;;;;12.82;4.82;;;17.60;99.90;;;;;;5023058;28;20285;-65
2023/07/02 07:01:47;;;;;;;11.55;4.68;;;16.70;99.90;;;;;;5049513;28;20304;-65
2023/07/02 07:04:16;;;;;;;18.48;4.55;;;16.80;99.90;;;;;;5040330;28;20305;-65
2023/07/02 07:06:44;;;;;;;15.82;4.43;;;16.80;99.90;;;;;;5055599;28;20204;-65
2023/07/02 07:09:11;;;;;;;11.57;4.72;;;16.80;99.90;;;;;;5056616;28;20205;-64
2023/07/02 07:11:38;;;;;;;10.60;4.65;;;16.80;99.90;;;;;;5042955;28;20311;-64
2023/07/02 07:14:05;;;;;;;11.82;4.63;;;16.80;99.90;;;;;;4992918;28;20785;-64
2023/07/02 07:16:32;;;;;;;12.57;4.47;;;16.80;99.90;;;;;;5064357;28;20228;-65
2023/07/02 07:18:59;;;;;;;17.10;4.30;;;16.90;99.90;;;;;;5039607;28;20299;-64
2023/07/02 07:21:28;;;;;;;13.45;3.92;;;16.80;99.90;;;;;;5052240;28;20238;-64
2023/07/02 07:23:55;;;;;;;12.65;4.65;;;16.80;99.90;;;;;;5066918;28;20243;-64
2023/07/02 07:26:22;;;;;;;10.65;4.57;;;16.90;99.90;;;;;;5059650;28;20196;-65
2023/07/02 07:28:50;;;;;;;11.30;4.20;;;15.30;99.90;;;;;;5039052;28;20362;-65
2023/07/02 07:31:17;;;;;;;12.82;4.53;;;17.00;99.90;;;;;;5055930;28;20231;-65
2023/07/02 07:33:44;;;;;;;10.82;4.55;;;16.90;99.90;;;;;;5064438;28;20231;-64
2023/07/02 07:36:12;;;;;;;9.50;4.30;;;16.90;99.90;;;;;;5047128;28;20334;-65
2023/07/02 07:38:40;;;;;;;9.45;4.25;;;17.20;99.90;;;;;;5045035;28;20313;-65
2023/07/02 07:41:08;;;;;;;11.95;4.05;;;17.00;99.90;;;;;;5061870;28;20286;-64
2023/07/02 07:43:35;;;;;;;11.82;4.78;;;16.90;99.90;;;;;;5031316;28;21050;-64
2023/07/02 07:46:02;;;;;;;10.38;4.45;;;17.00;99.90;;;;;;5045999;28;20260;-64
2023/07/02 07:48:30;;;;;;;10.68;3.88;;;17.00;99.90;;;;;;5056020;28;20248;-64
2023/07/02 07:50:57;;;;;;;10.10;4.05;;;17.10;99.90;;;;;;5038076;28;20251;-64
2023/07/02 07:53:24;;;;;;;11.70;3.97;;;17.20;99.90;;;;;;5046678;28;20255;-64
2023/07/02 07:55:52;;;;;;;13.85;4.70;;;17.20;99.90;;;;;;5059919;28;20200;-64
2023/07/02 07:58:19;;;;;;;10.32;3.65;;;16.90;99.90;;;;;;5056911;28;20255;-64
2023/07/02 08:00:46;;;;;;;11.32;4.10;;;17.20;99.90;;;;;;5018793;28;20200;-65
2023/07/02 08:03:13;;;;;;;9.05;3.63;;;17.00;99.90;;;;;;5035910;28;20792;-65
2023/07/02 08:05:40;;;;;;;9.00;3.63;;;17.00;99.90;;;;;;5044338;28;20248;-65
2023/07/02 08:08:08;;;;;;;13.13;4.25;;;17.40;99.90;;;;;;5038919;28;20331;-64
2023/07/02 08:10:35;;;;;;;13.70;4.10;;;17.40;99.90;;;;;;5061132;28;20220;-64
2023/07/02 08:13:03;;;;;;;10.60;3.72;;;17.40;99.90;;;;;;5060470;28;20284;-65
2023/07/02 08:15:30;;;;;;;11.35;4.15;;;18.30;99.90;;;;;;5017036;28;20329;-64
2023/07/02 08:17:58;;;;;;;13.77;4.60;;;17.50;99.90;;;;;;5047789;28;20270;-64
2023/07/02 08:20:25;;;;;;;11.75;3.80;;;17.60;99.90;;;;;;5047518;28;20431;-64
2023/07/02 08:22:53;;;;;;;9.30;4.03;;;18.30;99.90;;;;;;5034823;28;20373;-64
2023/07/02 08:25:21;;;;;;;12.13;3.47;;;17.60;99.90;;;;;;5051792;28;20302;-64
2023/07/02 08:27:48;;;;;;;11.23;3.83;;;17.40;99.90;;;;;;5047900;28;20211;-64
2023/07/02 08:30:16;;;;;;;11.50;3.80;;;17.40;99.90;;;;;;5008788;28;21187;-64
2023/07/02 08:32:43;;;;;;;8.43;3.05;;;17.50;99.90;;;;;;5038693;28;20357;-64
2023/07/02 08:35:10;;;;;;;7.47;3.20;;;17.60;99.90;;;;;;5037474;28;20262;-64
2023/07/02 08:37:37;;;;;;;11.55;3.00;;;17.70;99.90;;;;;;5038411;28;20353;-64
2023/07/02 08:40:06;;;;;;;7.78;3.15;;;17.80;99.90;;;;;;5046970;28;20220;-65
2023/07/02 08:42:34;;;;;;;13.55;3.00;;;17.70;99.90;;;;;;5052981;28;20220;-64
2023/07/02 08:45:01;;;;;;;10.80;3.40;;;17.80;99.90;;;;;;5018762;28;20248;-65
2023/07/02 08:47:30;;;;;;;7.38;3.22;;;17.90;99.90;;;;;;4990841;28;20231;-65
2023/07/02 08:49:57;;;;;;;12.18;3.47;;;18.20;99.90;;;;;;5023545;28;20953;-64
2023/07/02 08:52:24;;;;;;;8.18;3.38;;;18.10;99.90;;;;;;4993188;28;20289;-64
2023/07/02 08:54:51;;;;;;;7.70;3.40;;;17.90;99.90;;;;;;5038854;28;20227;-64
2023/07/02 08:57:18;;;;;;;7.72;3.60;;;17.90;99.90;;;;;;5027864;28;20833;-64
2023/07/02 08:59:46;;;;;;;12.35;3.65;;;17.70;99.90;;;;;;5038694;28;20372;-65
2023/07/02 09:02:14;;;;;;;9.45;3.80;;;17.60;99.90;;;;;;5012746;28;20373;-64
2023/07/02 09:04:42;;;;;;;10.07;3.33;;;17.70;99.90;;;;;;5032565;28;20366;-64
2023/07/02 09:07:11;;;;;;;10.75;4.20;;;17.80;99.90;;;;;;5019242;28;20312;-65
2023/07/02 09:09:46;;;;;;;9.18;3.65;;;17.80;99.90;;;;;;5033299;28;20357;-64
2023/07/02 09:12:23;;;;;;;10.63;3.78;;;18.10;99.90;;;;;;5045293;28;20216;-64
2023/07/02 09:14:56;;;;;;;11.10;3.85;;;18.30;99.90;;;;;;5043836;28;20216;-63
2023/07/02 09:17:27;;;;;;;9.65;3.85;;;18.30;99.90;;;;;;5009974;28;20239;-64
2023/07/02 09:19:56;;;;;;;8.20;3.25;;;18.50;99.90;;;;;;5035256;28;20407;-64
2023/07/02 09:22:23;;;;;;;9.75;2.92;;;18.40;99.90;;;;;;5025455;28;20291;-64
2023/07/02 09:24:54;;;;;;;5.85;2.60;;;18.20;99.90;;;;;;5028151;28;21057;-64
2023/07/02 09:27:22;;;;;;;6.38;2.50;;;18.20;99.90;;;;;;5043037;28;20235;-64
2023/07/02 09:29:52;;;;;;;8.93;2.50;;;18.30;99.90;;;;;;5018186;28;20434;-63
2023/07/02 09:32:29;;;;;;;10.02;2.60;;;18.60;99.90;;;;;;5044194;28;20220;-64
2023/07/02 09:34:59;;;;;;;4.75;2.45;;;18.30;99.90;;;;;;5015802;28;21123;-64
2023/07/02 09:37:26;;;;;;;6.78;2.20;;;18.30;99.90;;;;;;5030589;28;20228;-63
2023/07/02 09:39:54;;;;;;;4.72;2.17;;;18.40;99.90;;;;;;5027471;28;20803;-64
2023/07/02 09:42:22;;;;;;;4.60;1.50;;;18.60;99.90;;;;;;5028158;28;21013;-64
2023/07/02 09:44:52;;;;;;;8.65;2.00;;;18.70;99.90;;;;;;5039308;28;20866;-64
2023/07/02 09:47:20;;;;;;;4.68;1.90;;;18.70;99.90;;;;;;5040726;28;20328;-64
2023/07/02 09:49:53;;;;;;;5.93;1.77;;;18.70;99.90;;;;;;5005697;28;20225;-64
2023/07/02 09:52:22;;;;;;;5.68;2.28;;;18.90;99.90;;;;;;5044943;28;20565;-64
2023/07/02 09:54:49;;;;;;;5.47;3.05;;;18.90;99.90;;;;;;5028663;28;20456;-64
2023/07/02 09:57:16;;;;;;;4.18;2.00;;;18.80;99.90;;;;;;5020628;28;20315;-65
2023/07/02 09:59:43;;;;;;;2.53;1.45;;;18.90;99.90;;;;;;5042847;28;20424;-64
2023/07/02 10:02:11;;;;;;;4.18;2.22;;;18.80;99.90;;;;;;5053113;28;20327;-64
2023/07/02 10:04:41;;;;;;;7.28;2.08;;;19.10;99.90;;;;;;5023177;28;20301;-64
2023/07/02 10:07:09;;;;;;;4.72;1.80;;;19.40;99.90;;;;;;5036886;28;20224;-64
2023/07/02 10:09:39;;;;;;;9.93;1.98;;;19.30;99.90;;;;;;5045676;28;20204;-64
2023/07/02 10:12:19;;;;;;;9.32;2.38;;;19.50;99.90;;;;;;5043551;28;20358;-64
2023/07/02 10:14:47;;;;;;;7.22;1.80;;;19.60;99.90;;;;;;5047028;28;20306;-64
2023/07/02 10:17:25;;;;;;;7.57;2.20;;;19.70;99.90;;;;;;5053565;28;20373;-64
2023/07/02 10:19:53;;;;;;;3.97;2.20;;;19.70;99.90;;;;;;5059452;28;20444;-64
2023/07/02 10:22:20;;;;;;;4.95;1.98;;;19.80;99.90;;;;;;5009491;28;21083;-64
2023/07/02 10:24:59;;;;;;;5.65;2.08;;;19.60;99.90;;;;;;5044847;28;20318;-64
2023/07/02 10:27:36;;;;;;;7.47;2.20;;;19.50;99.90;;;;;;5043085;28;20200;-64
2023/07/02 10:30:05;;;;;;;8.27;2.90;;;19.20;99.90;;;;;;5053780;28;20683;-64
2023/07/02 10:32:33;;;;;;;8.77;2.15;;;19.10;99.90;;;;;;5050174;28;20877;-64
2023/07/02 10:35:02;;;;;;;7.03;2.20;;;19.10;99.90;;;;;;5058836;28;20581;-64
2023/07/02 10:37:37;;;;;;;10.57;3.67;;;19.10;99.90;;;;;;5019642;28;20232;-65
2023/07/02 10:40:09;;;;;;;8.70;2.72;;;19.30;99.90;;;;;;5024552;28;20918;-64
2023/07/02 10:42:46;;;;;;;5.18;2.45;;;19.20;99.90;;;;;;5037459;28;20622;-64
2023/07/02 10:45:13;;;;;;;7.50;2.83;;;19.30;99.90;;;;;;5021547;28;20230;-64
2023/07/02 10:47:41;;;;;;;4.57;1.95;;;19.20;99.90;;;;;;5029712;28;20225;-64
2023/07/02 10:50:16;;;;;;;6.70;1.90;;;19.40;99.90;;;;;;5033287;28;20512;-64
2023/07/02 10:52:43;;;;;;;6.18;2.10;;;19.40;99.90;;;;;;5007743;28;20265;-64
2023/07/02 10:55:13;;;;;;;5.32;2.50;;;19.40;99.90;;;;;;5020094;28;20253;-65
2023/07/02 10:57:40;;;;;;;5.45;2.55;;;19.50;99.90;;;;;;5038145;28;20227;-65
2023/07/02 11:00:08;;;;;;;11.10;2.10;;;19.50;99.90;;;;;;5008113;28;23004;-65
2023/07/02 11:02:35;;;;;;;7.55;2.38;;;19.50;99.90;;;;;;5042176;28;21274;-64
2023/07/02 11:05:03;;;;;;;5.05;2.20;;;19.50;99.90;;;;;;5026053;28;20403;-65
2023/07/02 11:07:30;;;;;;;4.70;2.33;;;19.60;99.90;;;;;;5010787;28;21853;-64
2023/07/02 11:09:57;;;;;;;7.20;2.60;;;19.70;99.90;;;;;;5032499;28;20354;-65
2023/07/02 11:12:30;;;;;;;8.00;2.53;;;19.50;99.90;;;;;;5011978;28;20231;-65
2023/07/02 11:15:08;;;;;;;9.55;3.05;;;19.40;99.90;;;;;;5039605;28;20334;-65
2023/07/02 11:17:35;;;;;;;8.57;2.58;;;19.60;99.90;;;;;;5030920;28;20362;-65
2023/07/02 11:20:05;;;;;;;7.35;2.30;;;19.30;99.90;;;;;;5034421;28;20843;-65
2023/07/02 11:22:35;;;;;;;10.82;2.92;;;19.60;99.90;;;;;;5006246;28;20274;-65
2023/07/02 11:25:13;;;;;;;10.20;3.15;;;19.60;99.90;;;;;;5030257;28;20677;-64
2023/07/02 11:27:42;;;;;;;8.05;2.75;;;19.40;99.90;;;;;;5028199;28;20713;-65
2023/07/02 11:30:10;;;;;;;3.92;2.50;;;19.20;99.90;;;;;;5042139;28;20232;-64
2023/07/02 11:32:49;;;;;;;6.78;2.50;;;19.10;99.90;;;;;;5038292;28;20633;-64
2023/07/02 11:35:17;;;;;;;5.57;2.38;;;19.20;99.90;;;;;;5036167;28;20334;-64
2023/07/02 11:37:44;;;;;;;8.00;2.25;;;19.30;99.90;;;;;;5025886;28;20221;-65
2023/07/02 11:40:12;;;;;;;4.82;2.00;;;19.40;99.90;;;;;;5017878;28;20466;-64
2023/07/02 11:42:41;;;;;;;6.35;2.13;;;19.50;99.90;;;;;;5037014;28;20207;-65
2023/07/02 11:45:09;;;;;;;8.25;2.55;;;19.40;99.90;;;;;;5041510;28;20212;-65
2023/07/02 11:47:36;;;;;;;6.32;2.65;;;19.40;99.90;;;;;;5038209;28;20322;-65
2023/07/02 11:50:03;;;;;;;6.88;1.88;;;19.30;99.90;;;;;;5034897;28;20295;-65
2023/07/02 11:52:30;;;;;;;4.25;2.08;;;19.30;99.90;;;;;;5030852;28;20224;-65
2023/07/02 11:54:57;;;;;;;9.27;2.53;;;19.30;99.90;;;;;;5002025;28;20204;-64
2023/07/02 11:57:24;;;;;;;6.20;2.40;;;19.40;99.90;;;;;;5042008;28;20385;-64
2023/07/02 11:59:53;;;;;;;7.97;2.80;;;19.20;99.90;;;;;;5011799;28;20200;-65
2023/07/02 12:02:20;;;;;;;6.78;2.75;;;19.30;99.90;;;;;;5037118;28;20409;-65
2023/07/02 12:04:47;;;;;;;10.13;2.85;;;19.40;99.90;;;;;;5017281;28;20824;-65
2023/07/02 12:07:15;;;;;;;7.57;2.60;;;19.50;99.90;;;;;;5032626;28;20347;-65
2023/07/02 12:09:42;;;;;;;6.20;2.50;;;19.40;99.90;;;;;;5003396;28;20327;-64
2023/07/02 12:12:09;;;;;;;6.60;2.42;;;19.40;99.90;;;;;;5038298;28;20366;-65
2023/07/02 12:14:36;;;;;;;6.95;2.85;;;19.20;99.90;;;;;;5037476;28;20216;-65
2023/07/02 12:17:05;;;;;;;6.22;2.40;;;19.10;99.90;;;;;;5025075;28;20227;-65
2023/07/02 12:19:32;;;;;;;5.97;2.72;;;19.00;99.90;;;;;;5035584;28;20785;-65
2023/07/02 12:21:59;;;;;;;7.40;2.90;;;18.90;99.90;;;;;;5023464;28;20469;-64
2023/07/02 12:24:26;;;;;;;7.55;2.50;;;18.80;99.90;;;;;;5007313;28;20233;-64
2023/07/02 12:26:53;;;;;;;7.85;2.88;;;18.90;99.90;;;;;;5010671;28;20701;-65
2023/07/02 12:29:20;;;;;;;7.07;2.50;;;19.10;99.90;;;;;;5031741;28;20387;-64
2023/07/02 12:31:47;;;;;;;7.43;2.50;;;19.20;99.90;;;;;;5012494;28;20570;-64
2023/07/02 12:34:15;;;;;;;5.80;2.35;;;19.30;99.90;;;;;;5043486;28;20653;-64
2023/07/02 12:36:42;;;;;;;8.05;2.50;;;19.40;99.90;;;;;;5022546;28;20304;-64
2023/07/02 12:39:10;;;;;;;8.90;2.17;;;19.40;99.90;;;;;;5046219;28;20319;-64
2023/07/02 12:41:37;;;;;;;7.28;2.13;;;19.50;99.90;;;;;;4999958;28;20205;-64
2023/07/02 12:44:04;;;;;;;8.13;2.50;;;19.40;99.90;;;;;;5046224;28;20232;-64
2023/07/02 12:46:31;;;;;;;6.60;2.15;;;19.20;99.90;;;;;;5010027;28;20261;-64